Terminal Aerodrome Forecast
Issued by NWS

Home | Current Version | Previous Version | Text Only | Print | Product List | Glossary On
Versions: 1 2 3 4 5 6 7 8 9 10 11 12 13 14 15 16 17 18
000
FTUS45 KSLC 211122
TAFEVW
TAF
KEVW 211122Z 2112/2212 09008KT P6SM VCSH SCT025 BKN050
     FM211600 25007KT 2SM -SN BR SCT005 BKN015
     FM212100 26012G20KT P6SM VCSH SCT020 BKN040
     FM220600 22010KT P6SM SCT040 BKN080=

USA.gov is the U.S. government's official web portal to all federal, state and local government web resources and services.